Terminal Aerodrome Forecast
Issued by NWS Cleveland, OH

Home | Current Version | Previous Version | Text Only | Print | Product List | Glossary Off
Versions: 1 2 3 4 5 6 7 8 9 10 11 12 13 14 15 16 17 18 19 20 21 22

000
FTUS41 KCLE 300000 AAA
TAFERI
TAF AMD
KERI 300014Z 3000/3024 21010G15KT 2SM -SN BR BKN005 OVC015
     FM300300 25010G17KT 4SM -SN BR OVC015
     FM301000 31012G19KT 4SM -SN OVC015
     FM301600 32013G21KT P6SM OVC015
     FM302000 31013G21KT P6SM OVC025
     FM302100 31012G19KT P6SM OVC050
     FM302300 31011G18KT P6SM OVC250=

USA.gov is the U.S. government's official web portal to all federal, state and local government web resources and services.